Time;durP1;ratioP1;P1;durP2;ratioP2;P2;SDS_P1;SDS_P2;PMS_P1;PMS_P2;Temp;Humidity;BMP_temperature;BMP_pressure;BME280_temperature;BME280_humidity;BME280_pressure;Samples;Min_cycle;Max_cycle;Signal;HPM_P1;HPM_P2
2021/10/28 00:13:09;;;;;;;1.67;0.70;;;;;;;15.28;68.29;100140.94;6302768;22;20383;-72
2021/10/28 00:15:40;;;;;;;2.95;0.90;;;;;;;15.32;68.18;100152.97;6301897;22;20409;-73
2021/10/28 00:18:12;;;;;;;8.73;1.00;;;;;;;15.41;68.01;100156.66;6301737;22;20003;-73
2021/10/28 00:20:38;;;;;;;1.52;0.77;;;;;;;15.38;68.51;100137.97;6301884;22;20038;-74
2021/10/28 00:23:05;;;;;;;4.07;0.85;;;;;;;15.40;68.73;100141.25;6274759;22;20465;-72
2021/10/28 00:25:33;;;;;;;4.55;0.93;;;;;;;15.37;69.05;100147.34;6302546;22;20027;-72
2021/10/28 00:27:59;;;;;;;4.20;0.82;;;;;;;15.33;69.09;100136.16;6274298;22;20435;-78
2021/10/28 00:30:26;;;;;;;6.22;0.77;;;;;;;15.32;69.35;100144.72;6227581;22;20031;-77
2021/10/28 00:32:58;;;;;;;3.47;0.80;;;;;;;15.22;69.25;100120.94;6290797;22;20027;-77
2021/10/28 00:35:28;;;;;;;9.20;0.95;;;;;;;15.23;69.00;100130.00;6321878;22;20010;-75
2021/10/28 00:38:02;;;;;;;2.85;0.60;;;;;;;15.17;69.00;100105.31;6310597;22;20128;-76
2021/10/28 00:40:37;;;;;;;2.20;0.70;;;;;;;15.32;68.96;100117.16;6277188;22;20006;-76
2021/10/28 00:43:02;;;;;;;;;;;;;;;15.45;68.60;100118.28;6305537;22;20002;-77
2021/10/28 00:45:40;;;;;;;;;;;;;;;15.43;68.63;100112.25;6304808;22;19907;-77
2021/10/28 00:48:07;;;;;;;;;;;;;;;15.35;69.02;100109.09;6278212;22;19903;-76
2021/10/28 00:50:34;;;;;;;4.43;2.55;;;;;;;15.19;69.63;100094.81;6252384;22;20241;-77
2021/10/28 00:53:01;;;;;;;0.93;0.50;;;;;;;15.19;69.54;100092.06;6279066;22;20003;-78
2021/10/28 00:55:26;;;;;;;1.10;0.60;;;;;;;15.22;70.04;100095.34;6277028;22;19995;-78
2021/10/28 00:57:56;;;;;;;4.03;0.90;;;;;;;15.18;69.85;100075.84;6278439;22;20010;-76
2021/10/28 01:00:29;;;;;;;6.38;0.55;;;;;;;15.15;69.87;100068.19;6275945;22;19999;-76
2021/10/28 01:03:00;;;;;;;2.88;0.70;;;;;;;15.19;69.76;100085.75;6302756;22;20066;-77
2021/10/28 01:05:33;;;;;;;4.95;1.45;;;;;;;15.16;69.86;100081.66;6278046;22;20060;-77
2021/10/28 01:08:04;;;;;;;4.40;0.75;;;;;;;15.11;69.47;100079.00;6277918;22;20052;-78
2021/10/28 01:10:40;;;;;;;;;;;;;;;;;;;;;
2021/10/28 01:13:06;;;;;;;2.58;1.00;;;;;;;15.08;69.42;100068.56;6305251;22;20082;-77
2021/10/28 01:15:32;;;;;;;3.17;0.70;;;;;;;15.18;69.25;100090.41;6278968;22;20598;-78
2021/10/28 01:17:57;;;;;;;1.65;0.60;;;;;;;15.26;69.09;100096.34;6275977;22;20014;-77
2021/10/28 01:20:23;;;;;;;2.65;0.75;;;;;;;15.15;68.88;100079.19;6251396;22;20003;-77
2021/10/28 01:22:54;;;;;;;1.50;0.47;;;;;;;15.23;69.49;100078.50;6304200;22;20010;-76
2021/10/28 01:25:19;;;;;;;2.63;0.90;;;;;;;15.31;68.92;100087.97;6303338;22;19995;-77
2021/10/28 01:27:45;;;;;;;5.07;1.50;;;;;;;15.14;68.63;100061.88;6303989;22;20080;-77
2021/10/28 01:30:11;;;;;;;1.30;0.60;;;;;;;15.24;68.92;100074.59;6276311;22;20003;-78
2021/10/28 01:32:46;;;;;;;;;;;;;;;;;;;;;
2021/10/28 01:35:15;;;;;;;3.50;1.10;;;;;;;15.10;69.36;100055.34;6300677;22;20381;-75
2021/10/28 01:37:48;;;;;;;2.85;0.70;;;;;;;15.16;69.26;100075.34;6276146;22;20011;-76
2021/10/28 01:40:23;;;;;;;2.17;0.60;;;;;;;15.14;69.18;100064.63;6303127;22;20007;-76
2021/10/28 01:42:51;;;;;;;2.72;0.63;;;;;;;15.06;69.04;100048.81;6305617;22;20022;-75
2021/10/28 01:45:34;;;;;;;4.10;1.20;;;;;;;15.05;69.07;100044.41;6276331;22;20019;-75
2021/10/28 01:48:00;;;;;;;1.17;0.50;;;;;;;15.10;69.24;100068.28;6305466;22;20072;-75
2021/10/28 01:50:28;;;;;;;1.88;0.57;;;;;;;15.07;69.20;100055.94;6303318;22;20022;-77
2021/10/28 01:53:26;;;;;;;3.70;1.15;;;;;;;15.10;69.63;100049.81;6276131;22;20034;-76
2021/10/28 01:56:14;;;;;;;1.20;0.60;;;;;;;15.07;69.54;100050.44;6301088;22;20003;-76
2021/10/28 01:59:10;;;;;;;;;;;;;;;;;;;;;
2021/10/28 02:01:46;;;;;;;;;;;;;;;;;;;;;
2021/10/28 02:04:14;;;;;;;3.70;0.98;;;;;;;14.94;69.51;100043.00;6305484;22;20071;-76
2021/10/28 02:06:47;;;;;;;2.25;0.60;;;;;;;14.95;69.47;100070.22;6277855;22;19995;-76
2021/10/28 02:09:24;;;;;;;2.78;0.73;;;;;;;14.94;69.68;100056.75;6279713;22;20414;-77
2021/10/28 02:11:50;;;;;;;4.40;1.23;;;;;;;14.85;69.19;100042.88;6306990;22;20007;-76
2021/10/28 02:14:26;;;;;;;;;;;;;;;;;;;;;
2021/10/28 02:16:55;;;;;;;8.45;1.23;;;;;;;14.98;69.32;100046.75;6313743;22;20078;-76
2021/10/28 02:19:23;;;;;;;1.67;0.90;;;;;;;14.90;69.17;100030.94;6327588;22;20002;-76
2021/10/28 02:21:49;;;;;;;4.25;0.80;;;;;;;14.96;69.16;100038.00;6273559;22;20006;-75
2021/10/28 02:24:14;;;;;;;4.22;0.85;;;;;;;15.02;69.17;100050.53;6257502;22;20003;-74
2021/10/28 02:26:49;;;;;;;1.08;0.52;;;;;;;14.86;69.18;100013.41;6305781;22;20314;-75
2021/10/28 02:29:25;;;;;;;;;;;;;;;;;;;;;
2021/10/28 02:31:53;;;;;;;0.57;0.30;;;;;;;14.78;69.47;100026.75;6306043;22;20095;-76
2021/10/28 02:34:19;;;;;;;0.88;0.63;;;;;;;14.79;69.24;100030.31;6282016;22;20012;-76
2021/10/28 02:36:49;;;;;;;5.97;0.68;;;;;;;14.73;69.61;100024.09;6266561;22;19999;-76
2021/10/28 02:39:15;;;;;;;3.60;1.13;;;;;;;14.69;69.59;100005.75;6299585;22;19999;-75
2021/10/28 02:41:42;;;;;;;8.52;2.55;;;;;;;14.78;69.36;100024.00;6325227;22;20003;-76
2021/10/28 02:44:09;;;;;;;1.48;0.80;;;;;;;14.83;69.42;100029.44;6310160;22;20633;-75
2021/10/28 02:47:23;;;;;;;;;;;;;;;;;;;;;
2021/10/28 02:49:38;;;;;;;4.43;1.13;;;;;;;14.61;69.31;100018.25;6300007;22;20015;-78
2021/10/28 02:52:13;;;;;;;3.63;1.00;;;;;;;14.57;69.45;99990.53;6281715;22;20090;-76
2021/10/28 02:58:23;;;;;;;5.05;1.10;;;;;;;14.72;69.72;100005.97;6087399;22;20033;-75
2021/10/28 03:00:49;;;;;;;2.53;0.93;;;;;;;14.68;69.73;100002.19;6306326;22;20708;-73
2021/10/28 03:03:14;;;;;;;3.33;0.70;;;;;;;14.79;69.44;100011.88;6306527;22;20054;-74
2021/10/28 03:05:44;;;;;;;2.53;0.73;;;;;;;14.72;69.93;99997.72;6278149;22;20011;-75
2021/10/28 03:08:10;;;;;;;12.45;0.95;;;;;;;14.73;69.66;100006.75;6278941;22;20006;-74
2021/10/28 03:10:36;;;;;;;3.55;0.60;;;;;;;14.64;70.00;99988.19;6279415;22;20003;-76
2021/10/28 03:13:04;;;;;;;2.72;0.73;;;;;;;14.67;70.11;99981.28;6228933;22;20012;-74
2021/10/28 03:15:35;;;;;;;1.77;0.90;;;;;;;14.77;69.91;99981.06;6253227;22;20014;-74
2021/10/28 03:18:19;;;;;;;2.28;1.20;;;;;;;14.77;70.08;99991.28;6276463;22;20342;-73
2021/10/28 03:26:13;;;;;;;1.00;0.80;;;;;;;14.70;70.88;99975.16;6258656;22;20490;-74
2021/10/28 03:28:39;;;;;;;2.40;1.25;;;;;;;14.68;70.83;99977.41;6278950;22;20086;-73
2021/10/28 03:31:04;;;;;;;2.65;0.90;;;;;;;14.68;70.84;99966.41;6279331;22;20045;-75
2021/10/28 03:33:32;;;;;;;1.98;0.60;;;;;;;14.74;70.67;99970.69;6277848;22;20758;-74
2021/10/28 03:35:57;;;;;;;1.95;0.70;;;;;;;14.66;71.20;99952.94;6279932;22;20011;-72
2021/10/28 04:31:46;;;;;;;1.98;0.90;;;;;;;14.68;72.16;99927.88;6315491;22;20030;-74
2021/10/28 04:34:24;;;;;;;;;;;;;;;;;;;;;
2021/10/28 04:36:50;;;;;;;5.20;1.17;;;;;;;14.73;72.80;99949.78;6304963;22;20070;-75
2021/10/28 04:39:16;;;;;;;1.55;0.40;;;;;;;14.63;72.87;99930.72;6252092;22;20045;-74
2021/10/28 04:41:42;;;;;;;4.40;1.27;;;;;;;14.58;73.00;99917.03;6277032;22;20056;-74
2021/10/28 04:44:10;;;;;;;1.85;1.08;;;;;;;14.67;73.14;99934.50;6275888;22;20003;-75
2021/10/28 04:46:39;;;;;;;3.13;0.70;;;;;;;14.57;73.06;99909.91;6277825;22;20031;-75
2021/10/28 04:49:08;;;;;;;8.60;1.08;;;;;;;14.53;73.34;99914.38;6275864;22;20023;-73
2021/10/28 04:51:41;;;;;;;2.40;1.00;;;;;;;14.52;73.87;99904.50;6278442;22;20007;-75
2021/10/28 04:54:06;;;;;;;9.30;1.10;;;;;;;14.57;73.42;99910.75;6276882;22;20007;-74
2021/10/28 04:56:32;;;;;;;3.92;1.02;;;;;;;14.57;73.49;99907.16;6278890;22;20445;-74
2021/10/28 04:59:00;;;;;;;3.20;1.00;;;;;;;14.57;73.43;99894.22;6276486;22;20003;-76
2021/10/28 05:01:26;;;;;;;4.10;1.13;;;;;;;14.59;73.56;99919.50;6276620;22;20023;-75
2021/10/28 05:03:51;;;;;;;3.70;0.60;;;;;;;14.56;73.59;99900.00;6305633;22;20003;-74
2021/10/28 05:06:19;;;;;;;3.05;0.80;;;;;;;14.54;73.50;99900.31;6304876;22;20445;-75
2021/10/28 05:08:44;;;;;;;6.78;1.05;;;;;;;14.60;73.48;99901.03;6278433;22;20098;-74
2021/10/28 05:11:11;;;;;;;2.72;0.95;;;;;;;14.67;73.48;99901.47;6274518;22;20034;-76
2021/10/28 05:13:39;;;;;;;5.95;0.77;;;;;;;14.56;73.27;99886.25;6277677;22;20010;-75
2021/10/28 05:16:08;;;;;;;4.20;1.10;;;;;;;14.56;73.57;99891.75;6303103;22;19999;-73
2021/10/28 05:18:42;;;;;;;1.25;0.70;;;;;;;14.60;73.14;99888.09;6304050;22;19995;-75
2021/10/28 05:21:18;;;;;;;;;;;;;;;;;;;;;
2021/10/28 05:23:46;;;;;;;1.33;0.65;;;;;;;14.64;73.42;99893.84;6305062;22;20378;-72
2021/10/28 05:26:13;;;;;;;1.70;0.88;;;;;;;14.70;73.13;99906.34;6303251;22;20000;-73
2021/10/28 05:28:43;;;;;;;3.00;1.02;;;;;;;14.65;73.18;99892.72;6303641;22;20034;-73
2021/10/28 05:31:08;;;;;;;4.95;1.10;;;;;;;14.62;73.41;99896.09;6227678;22;20086;-74
2021/10/28 05:33:38;;;;;;;0.95;0.75;;;;;;;14.61;73.54;99891.66;6224925;22;20031;-74
2021/10/28 05:36:04;;;;;;;1.65;0.85;;;;;;;14.68;73.35;99905.06;6277441;22;20007;-74
2021/10/28 05:38:30;;;;;;;3.83;1.17;;;;;;;14.76;73.37;99907.91;6277312;22;20004;-74
2021/10/28 05:41:04;;;;;;;1.42;0.50;;;;;;;14.67;73.37;99890.47;6276494;22;20011;-74
2021/10/28 05:43:30;;;;;;;7.30;0.90;;;;;;;14.69;73.69;99901.16;6280125;22;20436;-74
2021/10/28 05:45:55;;;;;;;0.80;0.43;;;;;;;14.64;73.83;99894.63;6229578;22;20112;-74
2021/10/28 05:48:21;;;;;;;2.92;0.73;;;;;;;14.64;73.63;99888.31;6279412;22;20080;-74
2021/10/28 05:51:04;;;;;;;4.05;1.35;;;;;;;14.65;74.23;99895.47;6278764;22;20011;-74
2021/10/28 05:53:31;;;;;;;5.35;0.90;;;;;;;14.64;74.13;99883.63;6308840;22;20011;-74
2021/10/28 05:56:00;;;;;;;5.78;1.13;;;;;;;14.55;74.05;99879.13;6307622;22;20007;-75
2021/10/28 05:58:54;;;;;;;2.05;0.80;;;;;;;14.62;74.31;99882.34;6305771;22;20003;-75
2021/10/28 06:01:23;;;;;;;1.77;0.88;;;;;;;14.72;73.98;99884.88;6306055;22;20003;-75
2021/10/28 06:04:06;;;;;;;;;;;;;;;;;;;;;
2021/10/28 06:06:34;;;;;;;1.20;0.60;;;;;;;14.64;74.26;99866.31;6303903;22;20074;-73
2021/10/28 06:08:59;;;;;;;0.70;0.60;;;;;;;14.68;74.14;99864.59;6303154;22;20033;-73
2021/10/28 06:11:25;;;;;;;6.90;0.90;;;;;;;14.71;74.08;99866.72;6225065;22;20015;-73
2021/10/28 06:13:52;;;;;;;10.07;1.13;;;;;;;14.74;73.95;99868.06;6250797;22;20007;-73
2021/10/28 06:16:17;;;;;;;1.75;1.05;;;;;;;14.65;74.28;99851.44;6303514;22;20082;-72
2021/10/28 06:18:43;;;;;;;1.17;0.80;;;;;;;14.71;74.15;99874.16;6304518;22;20391;-71
2021/10/28 06:21:10;;;;;;;3.20;1.13;;;;;;;14.64;74.77;99863.56;6274944;22;20011;-73
2021/10/28 06:23:37;;;;;;;1.65;0.82;;;;;;;14.60;74.82;99860.59;6277710;22;19999;-73
2021/10/28 06:26:03;;;;;;;4.53;0.77;;;;;;;14.55;75.01;99840.63;6306486;22;20007;-72
2021/10/28 06:28:28;;;;;;;5.20;1.00;;;;;;;14.62;75.05;99846.56;6312899;22;20003;-72
2021/10/28 06:30:54;;;;;;;2.97;0.70;;;;;;;14.60;75.19;99837.75;6286844;22;20884;-71
2021/10/28 06:33:25;;;;;;;4.55;0.88;;;;;;;14.55;75.38;99841.44;6305649;22;20008;-72
2021/10/28 06:35:51;;;;;;;2.85;0.65;;;;;;;14.57;75.48;99832.88;6276263;22;20057;-73
2021/10/28 06:38:17;;;;;;;3.88;1.00;;;;;;;14.60;75.31;99837.75;6275523;22;20022;-72
2021/10/28 06:40:43;;;;;;;5.43;0.80;;;;;;;14.58;75.11;99829.00;6304184;22;20003;-71
2021/10/28 06:43:10;;;;;;;3.13;0.82;;;;;;;14.60;75.03;99838.59;6276509;22;20006;-75
2021/10/28 06:45:38;;;;;;;7.13;1.45;;;;;;;14.54;75.43;99817.78;6306540;22;20031;-76
2021/10/28 06:48:05;;;;;;;3.15;0.80;;;;;;;14.53;75.50;99815.34;6256198;22;20500;-79
2021/10/28 06:50:41;;;;;;;2.00;0.90;;;;;;;14.64;75.05;99816.78;6279816;22;20019;-76
2021/10/28 06:53:20;;;;;;;1.45;0.77;;;;;;;14.61;75.08;99812.72;6280657;22;20008;-76
2021/10/28 07:04:09;;;;;;;5.40;1.10;;;;;;;14.64;74.53;99811.28;6307981;22;20668;-76
2021/10/28 07:06:38;;;;;;;1.50;0.60;;;;;;;14.70;74.77;99812.78;6228410;22;20007;-76
2021/10/28 07:09:16;;;;;;;3.35;1.27;;;;;;;14.64;74.90;99806.59;6278457;22;20034;-78
2021/10/28 07:11:42;;;;;;;1.80;1.05;;;;;;;14.72;74.71;99818.81;6231744;22;20007;-77
2021/10/28 07:14:09;;;;;;;0.98;0.82;;;;;;;14.74;74.53;99816.56;6255880;22;20030;-76
2021/10/28 07:16:59;;;;;;;3.83;1.02;;;;;;;14.72;74.46;99806.97;6256254;22;20022;-80
2021/10/28 07:30:33;;;;;;;6.07;1.27;;;;;;;14.78;74.44;99801.06;6261588;22;20046;-75
2021/10/28 08:16:10;;;;;;;;;;;;;;;;;;;;;
2021/10/28 08:18:47;;;;;;;3.83;1.13;;;;;;;15.22;73.83;99764.84;6149106;23;20002;-72
2021/10/28 08:29:25;;;;;;;6.32;1.20;;;;;;;15.08;74.57;99740.91;6271424;22;20488;-73
2021/10/28 08:32:02;;;;;;;1.90;0.80;;;;;;;15.13;74.26;99739.97;6223686;22;20484;-73
2021/10/28 08:34:37;;;;;;;9.68;1.35;;;;;;;15.18;74.25;99753.59;6272642;22;20000;-73
2021/10/28 08:37:10;;;;;;;4.50;0.90;;;;;;;15.11;74.28;99743.06;6268675;22;19999;-73
2021/10/28 08:39:48;;;;;;;3.90;0.90;;;;;;;15.18;74.46;99759.13;6272103;22;20033;-73
2021/10/28 08:42:15;;;;;;;2.08;0.90;;;;;;;15.12;74.68;99750.16;6245456;22;20008;-73
2021/10/28 08:44:51;;;;;;;9.02;1.38;;;;;;;15.22;74.44;99751.88;6269854;22;20085;-73
2021/10/28 08:47:17;;;;;;;6.55;1.20;;;;;;;15.21;74.17;99746.66;6246104;22;20007;-73
2021/10/28 08:49:47;;;;;;;4.97;0.90;;;;;;;15.28;74.11;99758.06;6262801;22;20011;-73
2021/10/28 08:58:09;;;;;;;7.97;1.80;;;;;;;15.28;73.78;99752.56;6312323;22;20080;-73
2021/10/28 09:27:26;;;;;;;;;;;;;;;;;;;;;
2021/10/28 09:30:20;;;;;;;8.73;1.52;;;;;;;15.74;70.68;99709.19;6181097;22;20086;-74
2021/10/28 09:32:50;;;;;;;3.05;1.38;;;;;;;15.73;70.96;99705.63;6275528;22;20010;-73
2021/10/28 09:44:20;;;;;;;2.60;1.20;;;;;;;15.88;70.52;99712.69;6218710;22;20011;-74
2021/10/28 09:46:48;;;;;;;1.75;0.82;;;;;;;15.86;70.74;99692.91;6279089;22;20003;-76
2021/10/28 09:52:16;;;;;;;4.18;1.00;;;;;;;15.85;70.94;99699.53;6311822;22;20017;-75
2021/10/28 09:57:49;;;;;;;3.90;1.67;;;;;;;15.98;70.10;99695.03;6302565;22;20046;-76
2021/10/28 10:00:16;;;;;;;5.97;1.23;;;;;;;15.85;69.96;99675.53;6275776;22;20009;-74
2021/10/28 10:05:29;;;;;;;4.32;1.23;;;;;;;15.88;70.25;99666.63;6301630;22;20109;-71
2021/10/28 10:08:07;;;;;;;5.78;1.48;;;;;;;15.93;70.04;99662.09;6274904;22;20035;-73
2021/10/28 10:10:44;;;;;;;1.75;1.02;;;;;;;16.00;70.09;99679.81;6301061;22;20078;-72
2021/10/28 10:13:12;;;;;;;2.90;1.27;;;;;;;16.03;70.24;99656.28;6274512;22;20004;-73
2021/10/28 10:15:44;;;;;;;4.88;1.52;;;;;;;15.95;70.02;99654.31;6301872;22;20007;-72
2021/10/28 10:18:22;;;;;;;9.68;1.30;;;;;;;15.99;70.17;99644.25;6280802;22;20003;-72
2021/10/28 10:20:55;;;;;;;5.25;1.60;;;;;;;16.11;70.24;99636.19;6299392;22;20011;-72
2021/10/28 12:46:11;;;;;;;2.67;1.02;;;;;;;16.14;71.19;99486.59;6221997;23;20004;-77
2021/10/28 13:50:26;;;;;;;7.13;1.50;;;;;;;15.73;72.40;99382.34;6301618;22;20026;-74
2021/10/28 13:53:28;;;;;;;;;;;;;;;;;;;;;
2021/10/28 15:36:11;;;;;;;5.07;2.53;;;;;;;15.34;74.02;99285.78;6278359;22;20010;-79
2021/10/28 15:38:46;;;;;;;12.07;2.65;;;;;;;15.34;74.21;99285.78;6261134;22;20019;-77
2021/10/28 15:41:43;;;;;;;5.53;2.22;;;;;;;15.36;74.25;99278.00;6297439;22;20010;-76
2021/10/28 16:01:26;;;;;;;5.88;2.53;;;;;;;15.15;75.60;99251.13;6295535;22;20022;-77
2021/10/28 16:21:50;;;;;;;7.70;3.65;;;;;;;15.18;75.25;99247.72;6322811;22;20030;-80
2021/10/28 16:24:37;;;;;;;11.77;2.78;;;;;;;15.18;75.30;99242.22;6304702;22;20380;-80
2021/10/28 16:27:22;;;;;;;3.72;2.13;;;;;;;15.19;75.63;99249.34;6280413;22;20018;-80
2021/10/28 16:30:14;;;;;;;4.78;2.00;;;;;;;15.11;75.69;99247.44;6321751;22;20003;-80
2021/10/28 16:32:54;;;;;;;4.47;2.13;;;;;;;15.13;75.45;99234.13;6318907;22;19999;-80
2021/10/28 16:35:23;;;;;;;4.00;2.10;;;;;;;15.10;75.38;99251.31;6293481;22;20038;-80
2021/10/28 16:37:56;;;;;;;8.68;2.60;;;;;;;15.11;75.57;99241.94;6290210;22;20007;-77
2021/10/28 16:40:42;;;;;;;4.72;2.30;;;;;;;15.14;75.72;99254.22;6314077;22;20018;-78
2021/10/28 16:43:27;;;;;;;;;;;;;;;;;;;;;
2021/10/28 16:45:58;;;;;;;4.53;2.77;;;;;;;15.06;75.34;99247.59;6290314;22;20480;-83
2021/10/28 16:48:24;;;;;;;10.63;2.92;;;;;;;14.92;75.89;99222.16;6283719;22;20007;-81
2021/10/28 16:50:50;;;;;;;5.47;2.45;;;;;;;15.04;75.92;99246.28;6282232;22;20068;-81
2021/10/28 17:03:08;;;;;;;7.18;2.83;;;;;;;15.09;75.74;99222.16;6298061;22;20022;-79
2021/10/28 17:09:29;;;;;;;4.30;3.20;;;;;;;15.09;76.04;99215.84;6055633;22;21087;-75
2021/10/28 17:12:02;;;;;;;16.98;2.45;;;;;;;15.16;76.14;99216.97;6255475;22;20064;-75
2021/10/28 17:14:32;;;;;;;6.82;2.78;;;;;;;15.09;76.14;99211.13;6302405;22;20026;-74
2021/10/28 17:17:00;;;;;;;6.75;3.28;;;;;;;15.17;75.84;99226.84;6277623;22;20091;-74
2021/10/28 17:19:28;;;;;;;8.27;2.67;;;;;;;15.12;76.05;99202.22;6276871;22;20007;-75
2021/10/28 17:22:03;;;;;;;;;;;;;;;;;;;;;
2021/10/28 17:24:38;;;;;;;10.70;3.67;;;;;;;15.12;76.05;99199.47;6307471;22;20078;-76
2021/10/28 17:27:05;;;;;;;3.83;2.30;;;;;;;15.13;76.05;99190.09;6278465;22;20003;-76
2021/10/28 17:29:45;;;;;;;6.00;2.70;;;;;;;15.12;76.26;99188.47;6307002;22;20532;-76
2021/10/28 17:32:11;;;;;;;6.72;3.72;;;;;;;15.08;76.28;99186.69;6282827;22;20003;-75
2021/10/28 17:34:44;;;;;;;7.43;3.30;;;;;;;15.07;76.36;99177.63;6307802;22;20007;-75
2021/10/28 17:37:12;;;;;;;8.98;2.70;;;;;;;15.05;76.29;99177.13;6311103;22;20495;-73
2021/10/28 17:39:37;;;;;;;6.93;2.45;;;;;;;15.10;76.34;99184.41;6252621;22;20022;-74
2021/10/28 17:42:03;;;;;;;7.97;3.13;;;;;;;15.03;76.15;99162.91;6305728;22;20011;-74
2021/10/28 17:44:41;;;;;;;9.70;3.13;;;;;;;15.06;75.75;99162.25;6306282;22;20071;-75
2021/10/28 17:47:06;;;;;;;6.97;3.78;;;;;;;15.09;75.96;99166.28;6273201;22;20073;-76
2021/10/28 17:49:40;;;;;;;7.20;2.50;;;;;;;15.13;75.91;99165.31;6304385;22;20437;-75
2021/10/28 17:52:06;;;;;;;4.55;2.88;;;;;;;15.18;75.57;99159.59;6276544;22;20011;-76
2021/10/28 17:54:32;;;;;;;19.15;2.67;;;;;;;15.32;75.28;99169.63;6306265;22;20015;-74
2021/10/28 17:57:03;;;;;;;5.03;2.50;;;;;;;15.22;75.35;99158.97;6277962;22;20089;-75
2021/10/28 17:59:28;;;;;;;9.38;2.90;;;;;;;15.22;75.24;99151.50;6282133;22;20061;-76
2021/10/28 18:01:54;;;;;;;6.80;2.63;;;;;;;15.31;75.19;99152.28;6277476;22;20011;-74
2021/10/28 18:04:19;;;;;;;4.82;2.25;;;;;;;15.36;74.77;99154.06;6306032;22;20007;-74
2021/10/28 18:06:45;;;;;;;8.40;2.95;;;;;;;15.34;74.89;99137.06;6303209;22;20394;-75
2021/10/28 18:09:10;;;;;;;11.93;2.97;;;;;;;15.39;74.83;99142.41;6302820;22;20011;-75
2021/10/28 18:11:36;;;;;;;3.35;2.22;;;;;;;15.41;74.46;99148.38;6281372;22;20052;-78
2021/10/28 18:14:09;;;;;;;6.97;3.25;;;;;;;15.40;74.92;99135.72;6256633;22;20082;-74
2021/10/28 18:16:34;;;;;;;5.68;2.08;;;;;;;15.40;74.75;99135.72;6290344;22;20082;-76
2021/10/28 18:19:01;;;;;;;9.30;2.47;;;;;;;15.37;74.74;99128.13;6317119;22;20011;-76
2021/10/28 18:21:27;;;;;;;8.32;3.15;;;;;;;15.36;74.54;99127.34;6315126;22;20410;-73
2021/10/28 18:23:56;;;;;;;4.18;2.67;;;;;;;15.42;74.27;99130.72;6286739;22;20053;-78
2021/10/28 18:26:23;;;;;;;4.00;2.90;;;;;;;15.42;74.14;99136.22;6318374;22;20078;-74
2021/10/28 18:28:50;;;;;;;6.78;2.75;;;;;;;15.38;74.11;99129.75;6262497;22;20069;-76
2021/10/28 18:31:16;;;;;;;13.00;3.17;;;;;;;15.37;73.80;99128.13;6314606;22;20029;-76
2021/10/28 18:33:43;;;;;;;5.60;2.40;;;;;;;15.44;73.43;99125.69;6312989;22;20330;-75
2021/10/28 18:36:10;;;;;;;8.00;3.70;;;;;;;15.46;73.06;99123.41;6282449;22;20121;-77
2021/10/28 18:38:36;;;;;;;6.93;3.10;;;;;;;15.46;72.88;99119.84;6278498;22;20010;-76
2021/10/28 18:41:03;;;;;;;1.80;1.70;;;;;;;15.52;72.67;99113.00;6278431;22;20018;-75
2021/10/28 18:43:29;;;;;;;8.90;2.38;;;;;;;15.54;72.72;99116.25;6305515;22;20368;-75
2021/10/28 18:45:55;;;;;;;10.02;1.90;;;;;;;15.53;72.63;99104.41;6307009;22;20060;-76
2021/10/28 18:48:22;;;;;;;4.38;2.33;;;;;;;15.58;72.13;99099.84;6307464;22;20003;-76
2021/10/28 18:50:48;;;;;;;11.52;2.22;;;;;;;15.56;72.22;99107.66;6276326;22;20026;-75
2021/10/28 18:53:14;;;;;;;5.03;2.05;;;;;;;15.56;71.68;99099.38;6306205;22;20007;-76
2021/10/28 18:55:39;;;;;;;4.60;1.98;;;;;;;15.60;71.47;99098.38;6304495;22;20007;-77
2021/10/28 18:58:08;;;;;;;4.25;2.17;;;;;;;15.57;71.14;99103.75;6306239;22;20437;-76
2021/10/28 19:00:35;;;;;;;5.45;1.90;;;;;;;15.64;71.05;99088.31;6306210;22;20029;-75
2021/10/28 19:03:00;;;;;;;6.00;1.85;;;;;;;15.62;71.31;99089.78;6304787;22;20378;-75
2021/10/28 19:05:27;;;;;;;3.80;1.98;;;;;;;15.61;70.99;99099.19;6305452;22;20014;-76
2021/10/28 19:07:53;;;;;;;3.75;1.98;;;;;;;15.57;71.15;99109.28;6305858;22;20522;-75
2021/10/28 19:10:19;;;;;;;7.20;2.92;;;;;;;15.51;71.25;99079.13;6307866;22;20052;-77
2021/10/28 19:12:45;;;;;;;2.90;1.83;;;;;;;15.48;71.46;99079.81;6304648;22;20328;-76
2021/10/28 19:15:11;;;;;;;4.35;2.08;;;;;;;15.50;71.41;99083.03;6306632;22;20003;-75
2021/10/28 19:17:38;;;;;;;3.25;2.10;;;;;;;15.49;70.68;99075.09;6307642;22;20003;-77
2021/10/28 19:20:04;;;;;;;2.42;2.13;;;;;;;15.50;70.61;99082.22;6283498;22;20493;-81
2021/10/28 19:22:32;;;;;;;1.98;1.75;;;;;;;15.60;70.64;99070.03;6308024;22;20003;-79
2021/10/28 19:24:59;;;;;;;4.95;1.50;;;;;;;15.57;70.24;99054.97;6286657;22;19995;-80
2021/10/28 19:27:25;;;;;;;6.00;2.03;;;;;;;15.62;69.99;99065.78;6318921;22;20436;-80
2021/10/28 19:29:57;;;;;;;4.40;2.28;;;;;;;15.54;70.14;99067.44;6317315;22;20103;-79
2021/10/28 19:32:24;;;;;;;4.38;2.22;;;;;;;15.60;69.96;99054.28;6258865;22;20031;-78
2021/10/28 19:34:50;;;;;;;3.17;1.60;;;;;;;15.62;69.88;99024.44;6229838;22;20023;-80
2021/10/28 19:48:12;;;;;;;;;;;;;;;;;;;;;
2021/10/28 19:50:46;;;;;;;1.85;1.60;;;;;;;15.51;69.95;98990.97;6312839;22;20046;-80
2021/10/28 19:53:19;;;;;;;2.72;2.15;;;;;;;15.59;70.39;99007.78;6285330;22;19999;-77
2021/10/28 19:56:06;;;;;;;;;;;;;;;;;;;;;
2021/10/28 19:58:40;;;;;;;2.63;2.42;;;;;;;15.58;70.44;99003.41;6286806;22;20033;-74
2021/10/28 20:01:18;;;;;;;5.03;2.45;;;;;;;15.45;70.56;98997.84;6306004;22;19999;-77
2021/10/28 20:22:31;;;;;;;13.15;2.85;;;;;;;15.57;70.19;98997.09;6318001;22;20003;-75
2021/10/28 20:24:57;;;;;;;4.07;2.33;;;;;;;15.58;70.52;98978.63;6281876;22;19999;-74
2021/10/28 20:27:24;;;;;;;4.82;2.13;;;;;;;15.50;71.60;98978.34;6305158;22;20086;-74
2021/10/28 20:29:50;;;;;;;2.45;2.22;;;;;;;15.27;73.48;98963.25;6310527;22;20022;-73
2021/10/28 20:32:26;;;;;;;5.47;2.75;;;;;;;15.16;75.09;98973.88;6327258;22;19991;-73
2021/10/28 20:37:42;;;;;;;11.32;2.45;;;;;;;14.70;77.03;98981.81;6307407;22;20053;-76
2021/10/28 20:40:11;;;;;;;11.68;2.95;;;;;;;14.48;78.51;98950.63;6308501;22;20074;-74
2021/10/28 20:42:38;;;;;;;8.02;2.75;;;;;;;14.39;79.91;98952.59;6304811;22;19999;-75
2021/10/28 20:45:10;;;;;;;6.78;3.00;;;;;;;14.26;80.64;98953.59;6281604;22;20287;-76
2021/10/28 20:47:39;;;;;;;7.07;2.63;;;;;;;14.09;81.92;98933.25;6280305;22;20003;-75
2021/10/28 20:50:08;;;;;;;6.85;2.58;;;;;;;14.03;83.14;98937.31;6305945;22;20370;-74
2021/10/28 20:52:34;;;;;;;6.07;2.67;;;;;;;14.01;82.94;98953.31;6280384;22;20011;-78
2021/10/28 20:55:03;;;;;;;8.23;3.28;;;;;;;13.98;83.24;98934.72;6307798;22;20009;-75
2021/10/28 20:57:33;;;;;;;5.10;2.70;;;;;;;14.08;83.45;98955.56;6254795;22;20013;-74
2021/10/28 20:59:58;;;;;;;15.00;3.38;;;;;;;13.99;83.72;98966.56;6278956;22;20011;-74
2021/10/28 21:02:39;;;;;;;;;;;;;;;;;;;;;
2021/10/28 21:05:12;;;;;;;5.53;3.40;;;;;;;13.97;84.42;98966.06;6283191;22;20091;-74
2021/10/28 21:07:46;;;;;;;3.38;2.67;;;;;;;13.87;84.67;98942.50;6277066;22;19999;-74
2021/10/28 21:10:16;;;;;;;7.00;3.55;;;;;;;13.87;84.99;98941.66;6307220;22;20090;-75
2021/10/28 21:12:42;;;;;;;5.53;3.13;;;;;;;13.85;85.11;98922.75;6305347;22;20030;-75
2021/10/28 21:15:08;;;;;;;10.00;3.15;;;;;;;13.94;85.02;98936.50;6280689;22;20004;-74
2021/10/28 21:17:34;;;;;;;5.38;2.72;;;;;;;14.05;84.95;98948.78;6279717;22;20010;-75
2021/10/28 21:20:00;;;;;;;4.03;2.47;;;;;;;13.94;84.85;98942.00;6307366;22;20027;-76
2021/10/28 21:22:26;;;;;;;7.82;2.78;;;;;;;14.05;85.21;98954.28;6278595;22;20065;-75
2021/10/28 21:24:59;;;;;;;11.38;3.65;;;;;;;14.02;84.83;98945.84;6305374;22;19999;-75
2021/10/28 21:27:25;;;;;;;4.88;3.22;;;;;;;14.07;85.25;98946.50;6280864;22;20058;-76
2021/10/28 21:29:50;;;;;;;4.40;3.08;;;;;;;14.05;85.13;98937.78;6279469;22;20011;-77
2021/10/28 21:32:19;;;;;;;4.88;2.80;;;;;;;14.07;85.11;98932.75;6310081;22;20426;-78
2021/10/28 21:34:48;;;;;;;14.98;4.60;;;;;;;13.96;85.10;98909.50;6311662;22;20406;-78
2021/10/28 21:37:18;;;;;;;3.53;2.67;;;;;;;14.04;85.55;98919.66;6253918;22;20018;-77
2021/10/28 21:39:43;;;;;;;4.93;3.85;;;;;;;14.08;85.75;98925.34;6278449;22;20405;-72
2021/10/28 21:42:22;;;;;;;6.97;2.92;;;;;;;14.09;85.78;98938.75;6307279;22;20010;-76
2021/10/28 21:45:03;;;;;;;5.10;3.10;;;;;;;14.07;85.73;98919.00;6255689;22;20067;-78
2021/10/28 21:47:40;;;;;;;2.67;2.47;;;;;;;14.05;85.69;98893.81;6282872;22;20031;-77
2021/10/28 21:50:17;;;;;;;8.43;3.22;;;;;;;14.25;85.52;98913.47;6259196;22;20445;-80